sensor_id;sensor_type;location;lat;lon;timestamp;P1;durP1;ratioP1;P2;durP2;ratioP2
6422;SDS011;3244;42.708;23.288;2022-11-02T00:01:43;16.85;;;9.95;;
6422;SDS011;3244;42.708;23.288;2022-11-02T00:04:10;18.15;;;10.38;;
6422;SDS011;3244;42.708;23.288;2022-11-02T00:06:37;18.88;;;9.50;;
6422;SDS011;3244;42.708;23.288;2022-11-02T00:09:05;15.10;;;9.52;;
6422;SDS011;3244;42.708;23.288;2022-11-02T00:11:33;23.80;;;10.63;;
6422;SDS011;3244;42.708;23.288;2022-11-02T00:14:01;22.40;;;10.07;;
6422;SDS011;3244;42.708;23.288;2022-11-02T00:16:28;33.40;;;11.00;;
6422;SDS011;3244;42.708;23.288;2022-11-02T00:18:56;13.63;;;9.05;;
6422;SDS011;3244;42.708;23.288;2022-11-02T00:21:25;15.48;;;9.02;;
6422;SDS011;3244;42.708;23.288;2022-11-02T00:23:53;20.25;;;8.93;;
6422;SDS011;3244;42.708;23.288;2022-11-02T00:26:22;17.33;;;9.13;;
6422;SDS011;3244;42.708;23.288;2022-11-02T00:28:51;23.65;;;10.65;;
6422;SDS011;3244;42.708;23.288;2022-11-02T00:31:18;18.13;;;9.10;;
6422;SDS011;3244;42.708;23.288;2022-11-02T00:33:45;23.52;;;9.43;;
6422;SDS011;3244;42.708;23.288;2022-11-02T00:36:12;20.17;;;10.02;;
6422;SDS011;3244;42.708;23.288;2022-11-02T00:38:39;23.08;;;9.98;;
6422;SDS011;3244;42.708;23.288;2022-11-02T00:41:05;20.50;;;9.82;;
6422;SDS011;3244;42.708;23.288;2022-11-02T00:43:32;18.55;;;8.80;;
6422;SDS011;3244;42.708;23.288;2022-11-02T00:46:00;27.52;;;10.40;;
6422;SDS011;3244;42.708;23.288;2022-11-02T00:48:27;13.80;;;9.55;;
6422;SDS011;3244;42.708;23.288;2022-11-02T00:50:54;18.80;;;10.25;;
6422;SDS011;3244;42.708;23.288;2022-11-02T00:53:21;14.02;;;9.23;;
6422;SDS011;3244;42.708;23.288;2022-11-02T00:55:48;23.48;;;10.20;;
6422;SDS011;3244;42.708;23.288;2022-11-02T00:58:15;16.55;;;9.68;;
6422;SDS011;3244;42.708;23.288;2022-11-02T01:00:42;23.88;;;10.20;;
6422;SDS011;3244;42.708;23.288;2022-11-02T01:03:10;23.98;;;11.68;;
6422;SDS011;3244;42.708;23.288;2022-11-02T01:05:37;26.50;;;10.93;;
6422;SDS011;3244;42.708;23.288;2022-11-02T01:08:04;29.45;;;12.68;;
6422;SDS011;3244;42.708;23.288;2022-11-02T01:10:31;27.77;;;12.25;;
6422;SDS011;3244;42.708;23.288;2022-11-02T01:12:58;31.70;;;12.95;;
6422;SDS011;3244;42.708;23.288;2022-11-02T01:15:26;26.42;;;11.63;;
6422;SDS011;3244;42.708;23.288;2022-11-02T01:17:53;19.08;;;10.40;;
6422;SDS011;3244;42.708;23.288;2022-11-02T01:20:21;23.00;;;9.48;;
6422;SDS011;3244;42.708;23.288;2022-11-02T01:22:47;19.38;;;10.15;;
6422;SDS011;3244;42.708;23.288;2022-11-02T01:25:14;16.35;;;9.75;;
6422;SDS011;3244;42.708;23.288;2022-11-02T01:27:41;15.57;;;9.20;;
6422;SDS011;3244;42.708;23.288;2022-11-02T01:30:08;15.00;;;10.25;;
6422;SDS011;3244;42.708;23.288;2022-11-02T01:32:36;18.75;;;10.00;;
6422;SDS011;3244;42.708;23.288;2022-11-02T01:35:03;14.50;;;9.32;;
6422;SDS011;3244;42.708;23.288;2022-11-02T01:37:32;16.65;;;9.18;;
6422;SDS011;3244;42.708;23.288;2022-11-02T01:39:59;14.18;;;8.50;;
6422;SDS011;3244;42.708;23.288;2022-11-02T01:42:26;16.38;;;9.63;;
6422;SDS011;3244;42.708;23.288;2022-11-02T01:44:53;16.58;;;8.60;;
6422;SDS011;3244;42.708;23.288;2022-11-02T01:47:21;16.70;;;9.02;;
6422;SDS011;3244;42.708;23.288;2022-11-02T01:49:54;17.33;;;9.93;;
6422;SDS011;3244;42.708;23.288;2022-11-02T01:52:24;15.77;;;8.95;;
6422;SDS011;3244;42.708;23.288;2022-11-02T01:54:57;20.98;;;9.32;;
6422;SDS011;3244;42.708;23.288;2022-11-02T01:57:32;17.23;;;9.27;;
6422;SDS011;3244;42.708;23.288;2022-11-02T02:00:03;15.80;;;8.70;;
6422;SDS011;3244;42.708;23.288;2022-11-02T02:02:32;11.68;;;9.13;;
6422;SDS011;3244;42.708;23.288;2022-11-02T02:05:03;12.57;;;8.68;;
6422;SDS011;3244;42.708;23.288;2022-11-02T02:07:31;16.20;;;9.25;;
6422;SDS011;3244;42.708;23.288;2022-11-02T02:10:02;16.45;;;9.95;;
6422;SDS011;3244;42.708;23.288;2022-11-02T02:12:29;18.13;;;8.98;;
6422;SDS011;3244;42.708;23.288;2022-11-02T02:14:57;18.17;;;8.55;;
6422;SDS011;3244;42.708;23.288;2022-11-02T02:17:31;16.25;;;9.10;;
6422;SDS011;3244;42.708;23.288;2022-11-02T02:20:06;19.70;;;9.38;;
6422;SDS011;3244;42.708;23.288;2022-11-02T02:23:10;15.18;;;10.10;;
6422;SDS011;3244;42.708;23.288;2022-11-02T02:25:57;22.90;;;10.65;;
6422;SDS011;3244;42.708;23.288;2022-11-02T02:28:39;18.85;;;9.50;;
6422;SDS011;3244;42.708;23.288;2022-11-02T02:31:13;15.55;;;9.50;;
6422;SDS011;3244;42.708;23.288;2022-11-02T02:33:45;18.15;;;10.35;;
6422;SDS011;3244;42.708;23.288;2022-11-02T02:36:18;15.50;;;10.18;;
6422;SDS011;3244;42.708;23.288;2022-11-02T02:38:53;19.05;;;9.73;;
6422;SDS011;3244;42.708;23.288;2022-11-02T02:41:29;17.38;;;8.65;;
6422;SDS011;3244;42.708;23.288;2022-11-02T02:44:03;18.33;;;10.02;;
6422;SDS011;3244;42.708;23.288;2022-11-02T02:46:35;11.75;;;8.57;;
6422;SDS011;3244;42.708;23.288;2022-11-02T02:49:06;17.58;;;9.68;;
6422;SDS011;3244;42.708;23.288;2022-11-02T02:51:36;13.27;;;9.23;;
6422;SDS011;3244;42.708;23.288;2022-11-02T02:54:07;18.70;;;10.70;;
6422;SDS011;3244;42.708;23.288;2022-11-02T02:56:38;22.98;;;10.95;;
6422;SDS011;3244;42.708;23.288;2022-11-02T02:59:11;16.63;;;10.23;;
6422;SDS011;3244;42.708;23.288;2022-11-02T03:01:41;23.70;;;12.65;;
6422;SDS011;3244;42.708;23.288;2022-11-02T03:04:10;32.38;;;13.07;;
6422;SDS011;3244;42.708;23.288;2022-11-02T03:06:38;37.05;;;15.27;;
6422;SDS011;3244;42.708;23.288;2022-11-02T03:09:11;36.33;;;15.52;;
6422;SDS011;3244;42.708;23.288;2022-11-02T03:11:46;32.67;;;15.77;;
6422;SDS011;3244;42.708;23.288;2022-11-02T03:14:23;32.83;;;16.17;;
6422;SDS011;3244;42.708;23.288;2022-11-02T03:17:04;30.95;;;15.73;;
6422;SDS011;3244;42.708;23.288;2022-11-02T03:19:41;26.42;;;15.20;;
6422;SDS011;3244;42.708;23.288;2022-11-02T03:22:17;24.15;;;13.18;;
6422;SDS011;3244;42.708;23.288;2022-11-02T03:24:53;28.80;;;12.98;;
6422;SDS011;3244;42.708;23.288;2022-11-02T03:27:27;28.38;;;12.82;;
6422;SDS011;3244;42.708;23.288;2022-11-02T03:30:06;29.83;;;12.70;;
6422;SDS011;3244;42.708;23.288;2022-11-02T03:32:35;17.70;;;10.40;;
6422;SDS011;3244;42.708;23.288;2022-11-02T03:35:09;21.15;;;11.43;;
6422;SDS011;3244;42.708;23.288;2022-11-02T03:37:43;25.40;;;10.18;;
6422;SDS011;3244;42.708;23.288;2022-11-02T03:40:16;19.52;;;10.25;;
6422;SDS011;3244;42.708;23.288;2022-11-02T03:42:46;19.27;;;11.45;;
6422;SDS011;3244;42.708;23.288;2022-11-02T03:45:17;20.23;;;10.85;;
6422;SDS011;3244;42.708;23.288;2022-11-02T03:47:48;21.15;;;10.43;;
6422;SDS011;3244;42.708;23.288;2022-11-02T03:50:19;27.73;;;10.55;;
6422;SDS011;3244;42.708;23.288;2022-11-02T03:52:49;20.42;;;10.77;;
6422;SDS011;3244;42.708;23.288;2022-11-02T03:55:23;17.45;;;10.07;;
6422;SDS011;3244;42.708;23.288;2022-11-02T03:57:54;23.80;;;11.18;;
6422;SDS011;3244;42.708;23.288;2022-11-02T04:00:23;20.70;;;12.13;;
6422;SDS011;3244;42.708;23.288;2022-11-02T04:02:53;20.98;;;10.55;;
6422;SDS011;3244;42.708;23.288;2022-11-02T04:05:26;19.55;;;11.00;;
6422;SDS011;3244;42.708;23.288;2022-11-02T04:07:53;16.00;;;11.25;;
6422;SDS011;3244;42.708;23.288;2022-11-02T04:10:39;18.33;;;10.10;;
6422;SDS011;3244;42.708;23.288;2022-11-02T04:13:25;18.02;;;11.77;;
6422;SDS011;3244;42.708;23.288;2022-11-02T04:16:11;18.25;;;10.18;;
6422;SDS011;3244;42.708;23.288;2022-11-02T04:18:39;23.65;;;11.40;;
6422;SDS011;3244;42.708;23.288;2022-11-02T04:21:26;15.88;;;9.77;;
6422;SDS011;3244;42.708;23.288;2022-11-02T04:23:52;26.83;;;10.82;;
6422;SDS011;3244;42.708;23.288;2022-11-02T04:26:37;22.63;;;10.98;;
6422;SDS011;3244;42.708;23.288;2022-11-02T04:29:03;14.05;;;10.00;;
6422;SDS011;3244;42.708;23.288;2022-11-02T04:31:32;20.58;;;10.38;;
6422;SDS011;3244;42.708;23.288;2022-11-02T04:33:58;14.38;;;10.27;;
6422;SDS011;3244;42.708;23.288;2022-11-02T04:36:24;20.20;;;10.88;;
6422;SDS011;3244;42.708;23.288;2022-11-02T04:38:53;101.40;;;53.33;;
6422;SDS011;3244;42.708;23.288;2022-11-02T04:41:20;38.08;;;21.08;;
6422;SDS011;3244;42.708;23.288;2022-11-02T04:44:05;24.73;;;12.95;;
6422;SDS011;3244;42.708;23.288;2022-11-02T04:46:34;18.23;;;10.93;;
6422;SDS011;3244;42.708;23.288;2022-11-02T04:49:02;20.60;;;10.88;;
6422;SDS011;3244;42.708;23.288;2022-11-02T04:51:29;16.98;;;10.60;;
6422;SDS011;3244;42.708;23.288;2022-11-02T04:53:56;13.07;;;10.40;;
6422;SDS011;3244;42.708;23.288;2022-11-02T04:56:23;16.60;;;11.32;;
6422;SDS011;3244;42.708;23.288;2022-11-02T04:58:51;19.88;;;10.75;;
6422;SDS011;3244;42.708;23.288;2022-11-02T05:01:19;21.30;;;11.30;;
6422;SDS011;3244;42.708;23.288;2022-11-02T05:03:49;20.48;;;12.65;;
6422;SDS011;3244;42.708;23.288;2022-11-02T05:06:16;22.83;;;11.38;;
6422;SDS011;3244;42.708;23.288;2022-11-02T05:08:44;25.33;;;11.73;;
6422;SDS011;3244;42.708;23.288;2022-11-02T05:11:11;23.13;;;11.38;;
6422;SDS011;3244;42.708;23.288;2022-11-02T05:13:39;20.80;;;11.15;;
6422;SDS011;3244;42.708;23.288;2022-11-02T05:16:07;19.45;;;10.45;;
6422;SDS011;3244;42.708;23.288;2022-11-02T05:18:37;26.15;;;12.20;;
6422;SDS011;3244;42.708;23.288;2022-11-02T05:21:05;42.70;;;22.67;;
6422;SDS011;3244;42.708;23.288;2022-11-02T05:23:32;50.88;;;25.17;;
6422;SDS011;3244;42.708;23.288;2022-11-02T05:25:59;34.15;;;19.10;;
6422;SDS011;3244;42.708;23.288;2022-11-02T05:28:28;31.17;;;11.77;;
6422;SDS011;3244;42.708;23.288;2022-11-02T05:30:57;28.92;;;11.73;;
6422;SDS011;3244;42.708;23.288;2022-11-02T05:33:24;31.05;;;15.60;;
6422;SDS011;3244;42.708;23.288;2022-11-02T05:35:53;26.50;;;14.00;;
6422;SDS011;3244;42.708;23.288;2022-11-02T05:38:21;70.82;;;36.15;;
6422;SDS011;3244;42.708;23.288;2022-11-02T05:40:50;39.55;;;22.02;;
6422;SDS011;3244;42.708;23.288;2022-11-02T05:43:17;30.60;;;17.02;;
6422;SDS011;3244;42.708;23.288;2022-11-02T05:45:49;30.13;;;14.50;;
6422;SDS011;3244;42.708;23.288;2022-11-02T05:48:17;34.80;;;14.60;;
6422;SDS011;3244;42.708;23.288;2022-11-02T05:50:44;24.73;;;15.48;;
6422;SDS011;3244;42.708;23.288;2022-11-02T05:53:10;39.35;;;18.27;;
6422;SDS011;3244;42.708;23.288;2022-11-02T05:55:39;39.95;;;18.30;;
6422;SDS011;3244;42.708;23.288;2022-11-02T05:58:05;28.25;;;17.60;;
6422;SDS011;3244;42.708;23.288;2022-11-02T06:00:32;49.53;;;24.25;;
6422;SDS011;3244;42.708;23.288;2022-11-02T06:02:59;49.85;;;29.20;;
6422;SDS011;3244;42.708;23.288;2022-11-02T06:05:25;57.70;;;31.48;;
6422;SDS011;3244;42.708;23.288;2022-11-02T06:07:53;41.97;;;26.02;;
6422;SDS011;3244;42.708;23.288;2022-11-02T06:10:23;27.77;;;18.55;;
6422;SDS011;3244;42.708;23.288;2022-11-02T06:12:54;30.40;;;15.50;;
6422;SDS011;3244;42.708;23.288;2022-11-02T06:15:22;22.33;;;14.88;;
6422;SDS011;3244;42.708;23.288;2022-11-02T06:17:48;44.40;;;16.05;;
6422;SDS011;3244;42.708;23.288;2022-11-02T06:20:16;33.50;;;14.40;;
6422;SDS011;3244;42.708;23.288;2022-11-02T06:22:43;37.80;;;14.73;;
6422;SDS011;3244;42.708;23.288;2022-11-02T06:25:10;30.42;;;13.88;;
6422;SDS011;3244;42.708;23.288;2022-11-02T06:27:38;30.25;;;14.82;;
6422;SDS011;3244;42.708;23.288;2022-11-02T06:30:08;31.48;;;15.05;;
6422;SDS011;3244;42.708;23.288;2022-11-02T06:32:35;44.50;;;14.70;;
6422;SDS011;3244;42.708;23.288;2022-11-02T06:35:02;35.40;;;12.73;;
6422;SDS011;3244;42.708;23.288;2022-11-02T06:37:31;24.15;;;12.55;;
6422;SDS011;3244;42.708;23.288;2022-11-02T06:39:59;33.53;;;14.77;;
6422;SDS011;3244;42.708;23.288;2022-11-02T06:42:26;18.35;;;12.32;;
6422;SDS011;3244;42.708;23.288;2022-11-02T06:44:52;26.45;;;14.27;;
6422;SDS011;3244;42.708;23.288;2022-11-02T06:47:20;30.48;;;13.63;;
6422;SDS011;3244;42.708;23.288;2022-11-02T06:49:47;35.38;;;16.13;;
6422;SDS011;3244;42.708;23.288;2022-11-02T06:52:16;28.08;;;16.70;;
6422;SDS011;3244;42.708;23.288;2022-11-02T06:54:42;28.35;;;15.13;;
6422;SDS011;3244;42.708;23.288;2022-11-02T06:57:09;32.00;;;15.70;;
6422;SDS011;3244;42.708;23.288;2022-11-02T06:59:36;25.13;;;13.75;;
6422;SDS011;3244;42.708;23.288;2022-11-02T07:02:02;24.17;;;15.05;;
6422;SDS011;3244;42.708;23.288;2022-11-02T07:04:31;37.95;;;17.33;;
6422;SDS011;3244;42.708;23.288;2022-11-02T07:06:57;30.27;;;16.00;;
6422;SDS011;3244;42.708;23.288;2022-11-02T07:09:24;27.85;;;15.75;;
6422;SDS011;3244;42.708;23.288;2022-11-02T07:11:52;32.88;;;16.52;;
6422;SDS011;3244;42.708;23.288;2022-11-02T07:14:18;35.80;;;16.83;;
6422;SDS011;3244;42.708;23.288;2022-11-02T07:16:45;42.22;;;20.15;;
6422;SDS011;3244;42.708;23.288;2022-11-02T07:19:13;37.25;;;18.75;;
6422;SDS011;3244;42.708;23.288;2022-11-02T07:21:41;34.95;;;17.02;;
6422;SDS011;3244;42.708;23.288;2022-11-02T07:24:08;51.25;;;19.45;;
6422;SDS011;3244;42.708;23.288;2022-11-02T07:26:35;38.95;;;20.17;;
6422;SDS011;3244;42.708;23.288;2022-11-02T07:29:01;40.65;;;20.10;;
6422;SDS011;3244;42.708;23.288;2022-11-02T07:31:28;45.72;;;25.85;;
6422;SDS011;3244;42.708;23.288;2022-11-02T07:33:56;50.55;;;22.52;;
6422;SDS011;3244;42.708;23.288;2022-11-02T07:36:23;43.63;;;23.48;;
6422;SDS011;3244;42.708;23.288;2022-11-02T07:38:51;33.20;;;18.27;;
6422;SDS011;3244;42.708;23.288;2022-11-02T07:41:18;36.88;;;18.52;;
6422;SDS011;3244;42.708;23.288;2022-11-02T07:43:44;35.80;;;19.23;;
6422;SDS011;3244;42.708;23.288;2022-11-02T07:46:11;34.08;;;19.92;;
6422;SDS011;3244;42.708;23.288;2022-11-02T07:48:38;42.60;;;21.20;;
6422;SDS011;3244;42.708;23.288;2022-11-02T07:51:05;37.85;;;18.10;;
6422;SDS011;3244;42.708;23.288;2022-11-02T07:53:32;40.67;;;19.50;;
6422;SDS011;3244;42.708;23.288;2022-11-02T07:56:00;43.95;;;21.42;;
6422;SDS011;3244;42.708;23.288;2022-11-02T07:58:27;39.17;;;20.02;;
6422;SDS011;3244;42.708;23.288;2022-11-02T08:00:56;46.92;;;20.13;;
6422;SDS011;3244;42.708;23.288;2022-11-02T08:03:24;38.13;;;18.75;;
6422;SDS011;3244;42.708;23.288;2022-11-02T08:05:51;32.85;;;17.92;;
6422;SDS011;3244;42.708;23.288;2022-11-02T08:08:19;43.20;;;18.85;;
6422;SDS011;3244;42.708;23.288;2022-11-02T08:10:48;41.55;;;19.10;;
6422;SDS011;3244;42.708;23.288;2022-11-02T08:13:18;43.72;;;18.30;;
6422;SDS011;3244;42.708;23.288;2022-11-02T08:15:47;34.40;;;17.20;;
6422;SDS011;3244;42.708;23.288;2022-11-02T08:18:21;41.80;;;17.15;;
6422;SDS011;3244;42.708;23.288;2022-11-02T08:20:50;35.10;;;16.50;;
6422;SDS011;3244;42.708;23.288;2022-11-02T08:23:19;30.38;;;16.85;;
6422;SDS011;3244;42.708;23.288;2022-11-02T08:25:46;35.58;;;17.08;;
6422;SDS011;3244;42.708;23.288;2022-11-02T08:28:15;36.55;;;17.05;;
6422;SDS011;3244;42.708;23.288;2022-11-02T08:30:45;30.17;;;16.08;;
6422;SDS011;3244;42.708;23.288;2022-11-02T08:33:12;51.28;;;18.55;;
6422;SDS011;3244;42.708;23.288;2022-11-02T08:35:40;38.35;;;17.85;;
6422;SDS011;3244;42.708;23.288;2022-11-02T08:38:08;35.65;;;17.17;;
6422;SDS011;3244;42.708;23.288;2022-11-02T08:40:36;36.10;;;17.73;;
6422;SDS011;3244;42.708;23.288;2022-11-02T08:43:03;37.28;;;17.02;;
6422;SDS011;3244;42.708;23.288;2022-11-02T08:45:32;37.58;;;16.67;;
6422;SDS011;3244;42.708;23.288;2022-11-02T08:48:01;30.58;;;16.55;;
6422;SDS011;3244;42.708;23.288;2022-11-02T08:50:28;38.40;;;16.45;;
6422;SDS011;3244;42.708;23.288;2022-11-02T08:52:55;38.33;;;16.38;;
6422;SDS011;3244;42.708;23.288;2022-11-02T08:55:22;37.83;;;16.73;;
6422;SDS011;3244;42.708;23.288;2022-11-02T08:57:49;29.40;;;16.17;;
6422;SDS011;3244;42.708;23.288;2022-11-02T09:00:18;32.10;;;16.30;;
6422;SDS011;3244;42.708;23.288;2022-11-02T09:02:56;34.83;;;16.55;;
6422;SDS011;3244;42.708;23.288;2022-11-02T09:05:26;58.55;;;17.30;;
6422;SDS011;3244;42.708;23.288;2022-11-02T09:07:53;26.27;;;16.05;;
6422;SDS011;3244;42.708;23.288;2022-11-02T09:10:22;40.97;;;17.30;;
6422;SDS011;3244;42.708;23.288;2022-11-02T09:12:48;37.58;;;16.85;;
6422;SDS011;3244;42.708;23.288;2022-11-02T09:15:15;32.55;;;15.63;;
6422;SDS011;3244;42.708;23.288;2022-11-02T09:17:44;38.55;;;17.50;;
6422;SDS011;3244;42.708;23.288;2022-11-02T09:20:12;26.85;;;15.77;;
6422;SDS011;3244;42.708;23.288;2022-11-02T09:22:40;37.25;;;17.25;;
6422;SDS011;3244;42.708;23.288;2022-11-02T09:25:07;38.55;;;17.65;;
6422;SDS011;3244;42.708;23.288;2022-11-02T09:27:34;33.97;;;16.90;;
6422;SDS011;3244;42.708;23.288;2022-11-02T09:30:01;26.65;;;15.02;;
6422;SDS011;3244;42.708;23.288;2022-11-02T09:32:29;28.95;;;15.40;;
6422;SDS011;3244;42.708;23.288;2022-11-02T09:34:57;39.28;;;16.02;;
6422;SDS011;3244;42.708;23.288;2022-11-02T09:37:24;30.17;;;15.25;;
6422;SDS011;3244;42.708;23.288;2022-11-02T09:39:52;27.45;;;14.40;;
6422;SDS011;3244;42.708;23.288;2022-11-02T09:42:21;28.60;;;14.00;;
6422;SDS011;3244;42.708;23.288;2022-11-02T09:44:52;36.58;;;16.02;;
6422;SDS011;3244;42.708;23.288;2022-11-02T09:47:23;30.25;;;15.07;;
6422;SDS011;3244;42.708;23.288;2022-11-02T09:49:52;27.77;;;16.67;;
6422;SDS011;3244;42.708;23.288;2022-11-02T09:52:23;35.03;;;14.80;;
6422;SDS011;3244;42.708;23.288;2022-11-02T09:54:58;23.63;;;14.00;;
6422;SDS011;3244;42.708;23.288;2022-11-02T09:57:28;30.33;;;14.82;;
6422;SDS011;3244;42.708;23.288;2022-11-02T09:59:57;28.38;;;14.07;;
6422;SDS011;3244;42.708;23.288;2022-11-02T10:02:26;32.70;;;14.82;;
6422;SDS011;3244;42.708;23.288;2022-11-02T10:05:23;32.75;;;14.63;;
6422;SDS011;3244;42.708;23.288;2022-11-02T10:11:03;30.45;;;15.35;;
6422;SDS011;3244;42.708;23.288;2022-11-02T10:13:42;26.17;;;14.30;;
6422;SDS011;3244;42.708;23.288;2022-11-02T10:16:18;31.02;;;14.02;;
6422;SDS011;3244;42.708;23.288;2022-11-02T10:18:47;44.50;;;14.73;;
6422;SDS011;3244;42.708;23.288;2022-11-02T10:21:29;31.38;;;14.15;;
6422;SDS011;3244;42.708;23.288;2022-11-02T10:24:09;41.10;;;16.60;;
6422;SDS011;3244;42.708;23.288;2022-11-02T10:26:42;34.42;;;13.70;;
6422;SDS011;3244;42.708;23.288;2022-11-02T10:29:12;32.00;;;14.65;;
6422;SDS011;3244;42.708;23.288;2022-11-02T10:31:42;32.08;;;13.75;;
6422;SDS011;3244;42.708;23.288;2022-11-02T10:34:12;37.88;;;13.30;;
6422;SDS011;3244;42.708;23.288;2022-11-02T10:36:49;34.35;;;13.90;;
6422;SDS011;3244;42.708;23.288;2022-11-02T10:39:28;38.25;;;14.75;;
6422;SDS011;3244;42.708;23.288;2022-11-02T10:42:12;36.80;;;15.07;;
6422;SDS011;3244;42.708;23.288;2022-11-02T10:44:55;40.25;;;23.17;;
6422;SDS011;3244;42.708;23.288;2022-11-02T10:47:32;34.10;;;18.77;;
6422;SDS011;3244;42.708;23.288;2022-11-02T10:53:08;26.38;;;15.32;;
6422;SDS011;3244;42.708;23.288;2022-11-02T10:55:40;25.05;;;9.18;;
6422;SDS011;3244;42.708;23.288;2022-11-02T10:58:16;17.70;;;9.57;;
6422;SDS011;3244;42.708;23.288;2022-11-02T11:00:46;23.02;;;12.55;;
6422;SDS011;3244;42.708;23.288;2022-11-02T11:03:14;19.98;;;10.73;;
6422;SDS011;3244;42.708;23.288;2022-11-02T11:05:50;20.45;;;8.60;;
6422;SDS011;3244;42.708;23.288;2022-11-02T11:08:30;20.13;;;8.10;;
6422;SDS011;3244;42.708;23.288;2022-11-02T11:11:14;22.85;;;6.80;;
6422;SDS011;3244;42.708;23.288;2022-11-02T11:13:54;34.92;;;12.70;;
6422;SDS011;3244;42.708;23.288;2022-11-02T11:16:34;21.25;;;8.18;;
6422;SDS011;3244;42.708;23.288;2022-11-02T11:19:03;19.15;;;7.13;;
6422;SDS011;3244;42.708;23.288;2022-11-02T11:21:36;18.80;;;6.95;;
6422;SDS011;3244;42.708;23.288;2022-11-02T11:27:04;25.55;;;5.93;;
6422;SDS011;3244;42.708;23.288;2022-11-02T11:29:44;18.00;;;6.20;;
6422;SDS011;3244;42.708;23.288;2022-11-02T11:32:13;14.77;;;5.53;;
6422;SDS011;3244;42.708;23.288;2022-11-02T11:34:43;10.15;;;4.30;;
6422;SDS011;3244;42.708;23.288;2022-11-02T11:37:16;14.30;;;5.38;;
6422;SDS011;3244;42.708;23.288;2022-11-02T11:39:43;15.80;;;4.55;;
6422;SDS011;3244;42.708;23.288;2022-11-02T11:42:15;21.80;;;6.60;;
6422;SDS011;3244;42.708;23.288;2022-11-02T11:44:49;15.57;;;5.45;;
6422;SDS011;3244;42.708;23.288;2022-11-02T11:47:26;16.40;;;5.10;;
6422;SDS011;3244;42.708;23.288;2022-11-02T11:49:55;18.67;;;8.55;;
6422;SDS011;3244;42.708;23.288;2022-11-02T11:52:26;13.00;;;4.80;;
6422;SDS011;3244;42.708;23.288;2022-11-02T11:54:56;13.25;;;4.30;;
6422;SDS011;3244;42.708;23.288;2022-11-02T11:57:25;7.30;;;4.13;;
6422;SDS011;3244;42.708;23.288;2022-11-02T11:59:55;21.00;;;13.82;;
6422;SDS011;3244;42.708;23.288;2022-11-02T12:02:26;12.40;;;7.43;;
6422;SDS011;3244;42.708;23.288;2022-11-02T12:04:58;19.35;;;4.05;;
6422;SDS011;3244;42.708;23.288;2022-11-02T12:07:33;11.35;;;4.03;;
6422;SDS011;3244;42.708;23.288;2022-11-02T12:10:30;11.73;;;4.13;;
6422;SDS011;3244;42.708;23.288;2022-11-02T12:13:12;12.65;;;3.45;;
6422;SDS011;3244;42.708;23.288;2022-11-02T12:15:52;14.65;;;4.35;;
6422;SDS011;3244;42.708;23.288;2022-11-02T12:18:29;20.30;;;4.32;;
6422;SDS011;3244;42.708;23.288;2022-11-02T12:21:05;12.77;;;7.38;;
6422;SDS011;3244;42.708;23.288;2022-11-02T12:23:45;16.85;;;4.88;;
6422;SDS011;3244;42.708;23.288;2022-11-02T12:26:24;11.32;;;4.90;;
6422;SDS011;3244;42.708;23.288;2022-11-02T12:29:06;12.63;;;4.75;;
6422;SDS011;3244;42.708;23.288;2022-11-02T12:31:49;20.20;;;5.80;;
6422;SDS011;3244;42.708;23.288;2022-11-02T12:34:30;6.78;;;4.70;;
6422;SDS011;3244;42.708;23.288;2022-11-02T12:37:14;18.02;;;4.78;;
6422;SDS011;3244;42.708;23.288;2022-11-02T12:39:53;15.23;;;4.55;;
6422;SDS011;3244;42.708;23.288;2022-11-02T12:42:32;11.48;;;4.93;;
6422;SDS011;3244;42.708;23.288;2022-11-02T12:45:09;15.68;;;5.63;;
6422;SDS011;3244;42.708;23.288;2022-11-02T12:47:52;15.07;;;4.93;;
6422;SDS011;3244;42.708;23.288;2022-11-02T12:50:24;11.85;;;4.55;;
6422;SDS011;3244;42.708;23.288;2022-11-02T12:53:07;12.38;;;4.00;;
6422;SDS011;3244;42.708;23.288;2022-11-02T12:55:44;15.77;;;4.43;;
6422;SDS011;3244;42.708;23.288;2022-11-02T12:58:15;16.67;;;5.95;;
6422;SDS011;3244;42.708;23.288;2022-11-02T13:00:46;19.85;;;3.95;;
6422;SDS011;3244;42.708;23.288;2022-11-02T13:03:22;14.27;;;4.72;;
6422;SDS011;3244;42.708;23.288;2022-11-02T13:05:57;7.55;;;4.95;;
6422;SDS011;3244;42.708;23.288;2022-11-02T13:08:32;85.15;;;37.78;;
6422;SDS011;3244;42.708;23.288;2022-11-02T13:11:04;21.77;;;5.80;;
6422;SDS011;3244;42.708;23.288;2022-11-02T13:13:37;19.63;;;4.93;;
6422;SDS011;3244;42.708;23.288;2022-11-02T13:16:08;18.48;;;5.03;;
6422;SDS011;3244;42.708;23.288;2022-11-02T13:18:38;14.30;;;4.30;;
6422;SDS011;3244;42.708;23.288;2022-11-02T13:21:11;7.80;;;3.63;;
6422;SDS011;3244;42.708;23.288;2022-11-02T13:23:42;11.60;;;4.90;;
6422;SDS011;3244;42.708;23.288;2022-11-02T13:26:13;11.60;;;4.38;;
6422;SDS011;3244;42.708;23.288;2022-11-02T13:28:51;11.07;;;5.10;;
6422;SDS011;3244;42.708;23.288;2022-11-02T13:31:26;15.85;;;4.30;;
6422;SDS011;3244;42.708;23.288;2022-11-02T13:34:00;21.40;;;5.68;;
6422;SDS011;3244;42.708;23.288;2022-11-02T13:36:34;11.77;;;4.20;;
6422;SDS011;3244;42.708;23.288;2022-11-02T13:39:04;12.68;;;4.20;;
6422;SDS011;3244;42.708;23.288;2022-11-02T13:41:39;23.55;;;5.60;;
6422;SDS011;3244;42.708;23.288;2022-11-02T13:44:26;15.55;;;4.72;;
6422;SDS011;3244;42.708;23.288;2022-11-02T13:47:32;8.48;;;4.28;;
6422;SDS011;3244;42.708;23.288;2022-11-02T13:50:11;14.43;;;4.95;;
6422;SDS011;3244;42.708;23.288;2022-11-02T13:52:43;8.45;;;4.63;;
6422;SDS011;3244;42.708;23.288;2022-11-02T13:55:15;5.70;;;5.05;;
6422;SDS011;3244;42.708;23.288;2022-11-02T13:57:46;14.25;;;5.88;;
6422;SDS011;3244;42.708;23.288;2022-11-02T14:00:29;23.88;;;7.85;;
6422;SDS011;3244;42.708;23.288;2022-11-02T14:03:01;13.50;;;4.60;;
6422;SDS011;3244;42.708;23.288;2022-11-02T14:05:44;9.50;;;4.55;;
6422;SDS011;3244;42.708;23.288;2022-11-02T14:08:16;15.80;;;4.75;;
6422;SDS011;3244;42.708;23.288;2022-11-02T14:10:50;13.98;;;4.97;;
6422;SDS011;3244;42.708;23.288;2022-11-02T14:16:44;10.93;;;5.00;;
6422;SDS011;3244;42.708;23.288;2022-11-02T14:19:23;8.98;;;4.50;;
6422;SDS011;3244;42.708;23.288;2022-11-02T14:22:07;11.63;;;5.90;;
6422;SDS011;3244;42.708;23.288;2022-11-02T14:24:54;10.65;;;6.38;;
6422;SDS011;3244;42.708;23.288;2022-11-02T14:27:33;16.05;;;7.03;;
6422;SDS011;3244;42.708;23.288;2022-11-02T14:29:59;17.50;;;6.72;;
6422;SDS011;3244;42.708;23.288;2022-11-02T14:32:40;21.63;;;6.65;;
6422;SDS011;3244;42.708;23.288;2022-11-02T14:35:23;18.95;;;6.55;;
6422;SDS011;3244;42.708;23.288;2022-11-02T14:38:19;20.98;;;6.82;;
6422;SDS011;3244;42.708;23.288;2022-11-02T14:41:15;12.93;;;6.28;;
6422;SDS011;3244;42.708;23.288;2022-11-02T14:43:57;20.13;;;8.30;;
6422;SDS011;3244;42.708;23.288;2022-11-02T14:49:21;18.88;;;9.85;;
6422;SDS011;3244;42.708;23.288;2022-11-02T14:51:54;26.30;;;9.57;;
6422;SDS011;3244;42.708;23.288;2022-11-02T14:54:26;16.40;;;9.65;;
6422;SDS011;3244;42.708;23.288;2022-11-02T14:56:58;18.58;;;11.85;;
6422;SDS011;3244;42.708;23.288;2022-11-02T14:59:29;19.70;;;11.60;;
6422;SDS011;3244;42.708;23.288;2022-11-02T15:02:01;20.52;;;12.40;;
6422;SDS011;3244;42.708;23.288;2022-11-02T15:04:29;23.73;;;9.43;;
6422;SDS011;3244;42.708;23.288;2022-11-02T15:06:59;19.95;;;9.52;;
6422;SDS011;3244;42.708;23.288;2022-11-02T15:12:30;21.45;;;7.82;;
6422;SDS011;3244;42.708;23.288;2022-11-02T15:15:01;15.20;;;7.43;;
6422;SDS011;3244;42.708;23.288;2022-11-02T15:17:51;21.30;;;7.43;;
6422;SDS011;3244;42.708;23.288;2022-11-02T15:20:24;11.35;;;6.10;;
6422;SDS011;3244;42.708;23.288;2022-11-02T15:22:53;10.02;;;5.75;;
6422;SDS011;3244;42.708;23.288;2022-11-02T15:25:26;14.32;;;6.65;;